Orangeburg, SC

10:32 AM EST on March 03, 2015 (GMT -0500)
Fox Knoll Farm | Change Station
CLOSE
Current Station
Personal Weather Station
Location: Orangeburg, SC
Elevation: 279 ft
Nearby Weather Stations

Elev 279 ft 33.60 °N, 80.87 °W | Updated 13 seconds ago

Overcast
Overcast
50.0 °F
Feels Like 50.0 °F
N
1.1
Wind Variable Wind from ENE
Gusts 2.5 mph

Today
High -- | Low -- °F
--% Chance of Precip.
Yesterday
High -- | Low -- °F
Precip. -- in
6:49 AM 6:21 PM
Waxing Gibbous, 96% visible
Pressure 30.29 in
Visibility 1.5 miles
Clouds Overcast 500 ft
Dew Point 49 °F
Humidity 97%
Rainfall 0.00 in
Snow Depth Not available.
UV 1.0 out of 12
Pollen .30 out of 12
Air Quality Not available.
Flu Activity Not available.
SPECI KOGB 031525Z AUTO 08006KT 1 1/2SM -RA BR OVC005 10/08 A3029 RMK AO2 RAB20 P0000 T01000083

More Conditions Fewer Conditions

Pressure 30.29 in
Visibility 1.5 miles
Clouds Overcast 500 ft
Dew Point 49 °F
Humidity 97%
Rainfall 0.00 in
Snow Depth Not available.
UV 1.0 out of 12
Pollen .30 out of 12
Air Quality Not available.
Flu Activity Not available.
SPECI KOGB 031525Z AUTO 08006KT 1 1/2SM -RA BR OVC005 10/08 A3029 RMK AO2 RAB20 P0000 T01000083

More Conditions Fewer Conditions

10-Day Weather Forecast

Almanac

Astronomy

Mar. 03, 2015 Rise Set
Actual Time
Civil Twilight
Nautical Twilight
Astronomical Twilight
Moon
Length of Visible Light
Length of Day
Tomorrow will be .
, % of the Moon is Illuminated

Today's Extremes

State Highs State Lows

Community

WunderPhotos

Upload Photos

1,802,147 photos uploaded!

WunderBlogs® & News

Nearby

Air Quality

  Air Quality AQ Index Pollutant
Not available.

Snow Depth

Station Depth Elevation

Earthquake Activity

City Distance Mag. Time & Date
Minimum magnitude displayed is 2.5.

Coastal Water Temperatures

Place Temperature

Nearby Weather Stations